sensor_id;sensor_type;location;lat;lon;timestamp;temperature;humidity
76172;DHT22;64929;51.178;4.138;2023-05-10T00:01:05;14.80;92.70
76172;DHT22;64929;51.178;4.138;2023-05-10T00:03:31;14.80;92.50
76172;DHT22;64929;51.178;4.138;2023-05-10T00:05:57;14.90;92.40
76172;DHT22;64929;51.178;4.138;2023-05-10T00:08:23;14.90;92.20
76172;DHT22;64929;51.178;4.138;2023-05-10T00:10:49;14.80;92.20
76172;DHT22;64929;51.178;4.138;2023-05-10T00:13:14;14.80;92.20
76172;DHT22;64929;51.178;4.138;2023-05-10T00:15:40;14.60;92.70
76172;DHT22;64929;51.178;4.138;2023-05-10T00:18:06;14.60;92.60
76172;DHT22;64929;51.178;4.138;2023-05-10T00:20:32;14.80;92.10
76172;DHT22;64929;51.178;4.138;2023-05-10T00:22:57;14.60;92.50
76172;DHT22;64929;51.178;4.138;2023-05-10T00:25:23;14.50;92.50
76172;DHT22;64929;51.178;4.138;2023-05-10T00:27:49;14.40;92.70
76172;DHT22;64929;51.178;4.138;2023-05-10T00:30:27;14.40;92.80
76172;DHT22;64929;51.178;4.138;2023-05-10T00:32:52;14.20;93.00
76172;DHT22;64929;51.178;4.138;2023-05-10T00:35:18;14.20;92.80
76172;DHT22;64929;51.178;4.138;2023-05-10T00:37:44;14.30;92.90
76172;DHT22;64929;51.178;4.138;2023-05-10T00:40:10;14.30;92.80
76172;DHT22;64929;51.178;4.138;2023-05-10T00:42:36;14.30;93.00
76172;DHT22;64929;51.178;4.138;2023-05-10T00:45:02;14.10;93.20
76172;DHT22;64929;51.178;4.138;2023-05-10T00:47:28;14.10;93.10
76172;DHT22;64929;51.178;4.138;2023-05-10T00:49:54;14.10;93.40
76172;DHT22;64929;51.178;4.138;2023-05-10T00:52:21;14.10;93.30
76172;DHT22;64929;51.178;4.138;2023-05-10T00:54:49;14.10;93.30
76172;DHT22;64929;51.178;4.138;2023-05-10T00:57:15;14.10;93.40
76172;DHT22;64929;51.178;4.138;2023-05-10T00:59:42;14.20;93.20
76172;DHT22;64929;51.178;4.138;2023-05-10T01:02:08;14.20;93.10
76172;DHT22;64929;51.178;4.138;2023-05-10T01:04:35;14.10;93.40
76172;DHT22;64929;51.178;4.138;2023-05-10T01:07:00;14.00;93.80
76172;DHT22;64929;51.178;4.138;2023-05-10T01:09:27;14.00;94.10
76172;DHT22;64929;51.178;4.138;2023-05-10T01:11:53;13.90;94.10
76172;DHT22;64929;51.178;4.138;2023-05-10T01:14:20;14.10;93.70
76172;DHT22;64929;51.178;4.138;2023-05-10T01:16:48;14.00;93.90
76172;DHT22;64929;51.178;4.138;2023-05-10T01:19:20;14.20;93.70
76172;DHT22;64929;51.178;4.138;2023-05-10T01:38:49;14.20;93.30
76172;DHT22;64929;51.178;4.138;2023-05-10T01:44:01;14.30;93.20
76172;DHT22;64929;51.178;4.138;2023-05-10T01:46:35;14.20;93.40
76172;DHT22;64929;51.178;4.138;2023-05-10T01:49:13;14.20;93.50
76172;DHT22;64929;51.178;4.138;2023-05-10T01:51:45;14.20;93.50
76172;DHT22;64929;51.178;4.138;2023-05-10T01:54:13;14.20;93.40
76172;DHT22;64929;51.178;4.138;2023-05-10T01:56:40;14.40;92.90
76172;DHT22;64929;51.178;4.138;2023-05-10T01:59:12;14.40;92.80
76172;DHT22;64929;51.178;4.138;2023-05-10T02:01:40;14.30;93.10
76172;DHT22;64929;51.178;4.138;2023-05-10T02:04:07;14.30;93.20
76172;DHT22;64929;51.178;4.138;2023-05-10T02:06:34;14.40;93.00
76172;DHT22;64929;51.178;4.138;2023-05-10T02:09:01;14.40;92.80
76172;DHT22;64929;51.178;4.138;2023-05-10T02:11:28;14.50;92.70
76172;DHT22;64929;51.178;4.138;2023-05-10T02:13:55;14.60;92.40
76172;DHT22;64929;51.178;4.138;2023-05-10T02:16:24;14.60;92.50
76172;DHT22;64929;51.178;4.138;2023-05-10T02:18:52;14.60;92.50
76172;DHT22;64929;51.178;4.138;2023-05-10T02:21:20;14.40;92.60
76172;DHT22;64929;51.178;4.138;2023-05-10T02:23:46;14.40;92.80
76172;DHT22;64929;51.178;4.138;2023-05-10T02:26:14;14.30;93.10
76172;DHT22;64929;51.178;4.138;2023-05-10T02:28:42;14.50;92.40
76172;DHT22;64929;51.178;4.138;2023-05-10T02:31:09;14.40;92.40
76172;DHT22;64929;51.178;4.138;2023-05-10T02:33:37;14.10;93.00
76172;DHT22;64929;51.178;4.138;2023-05-10T02:36:04;14.10;92.90
76172;DHT22;64929;51.178;4.138;2023-05-10T02:38:32;14.30;92.30
76172;DHT22;64929;51.178;4.138;2023-05-10T02:40:59;14.30;92.60
76172;DHT22;64929;51.178;4.138;2023-05-10T02:43:26;14.20;92.20
76172;DHT22;64929;51.178;4.138;2023-05-10T02:45:54;14.20;92.50
76172;DHT22;64929;51.178;4.138;2023-05-10T02:48:19;14.30;92.40
76172;DHT22;64929;51.178;4.138;2023-05-10T02:50:45;14.30;92.20
76172;DHT22;64929;51.178;4.138;2023-05-10T02:53:22;14.50;91.80
76172;DHT22;64929;51.178;4.138;2023-05-10T02:55:51;14.50;92.10
76172;DHT22;64929;51.178;4.138;2023-05-10T02:58:18;14.30;92.40
76172;DHT22;64929;51.178;4.138;2023-05-10T03:00:45;14.30;92.30
76172;DHT22;64929;51.178;4.138;2023-05-10T03:03:11;14.40;91.70
76172;DHT22;64929;51.178;4.138;2023-05-10T03:05:37;14.30;92.50
76172;DHT22;64929;51.178;4.138;2023-05-10T03:08:03;14.30;92.50
76172;DHT22;64929;51.178;4.138;2023-05-10T03:10:30;14.50;91.60
76172;DHT22;64929;51.178;4.138;2023-05-10T03:15:47;14.40;91.80
76172;DHT22;64929;51.178;4.138;2023-05-10T03:18:36;14.20;91.90
76172;DHT22;64929;51.178;4.138;2023-05-10T03:21:04;14.20;91.90
76172;DHT22;64929;51.178;4.138;2023-05-10T03:23:39;14.10;91.90
76172;DHT22;64929;51.178;4.138;2023-05-10T03:26:06;14.10;92.30
76172;DHT22;64929;51.178;4.138;2023-05-10T03:28:34;14.20;91.60
76172;DHT22;64929;51.178;4.138;2023-05-10T03:31:01;14.10;92.20
76172;DHT22;64929;51.178;4.138;2023-05-10T03:33:27;14.00;92.00
76172;DHT22;64929;51.178;4.138;2023-05-10T03:35:53;14.20;91.90
76172;DHT22;64929;51.178;4.138;2023-05-10T03:38:18;14.10;92.20
76172;DHT22;64929;51.178;4.138;2023-05-10T03:40:44;14.20;92.00
76172;DHT22;64929;51.178;4.138;2023-05-10T03:43:10;14.30;91.70
76172;DHT22;64929;51.178;4.138;2023-05-10T03:45:36;14.30;91.70
76172;DHT22;64929;51.178;4.138;2023-05-10T03:48:01;14.30;91.80
76172;DHT22;64929;51.178;4.138;2023-05-10T03:50:27;14.40;91.50
76172;DHT22;64929;51.178;4.138;2023-05-10T03:52:53;14.20;91.80
76172;DHT22;64929;51.178;4.138;2023-05-10T03:55:18;14.30;91.60
76172;DHT22;64929;51.178;4.138;2023-05-10T03:57:44;14.10;92.00
76172;DHT22;64929;51.178;4.138;2023-05-10T04:00:10;14.00;92.20
76172;DHT22;64929;51.178;4.138;2023-05-10T04:02:36;14.00;92.10
76172;DHT22;64929;51.178;4.138;2023-05-10T04:05:02;14.20;91.70
76172;DHT22;64929;51.178;4.138;2023-05-10T04:07:28;14.30;91.70
76172;DHT22;64929;51.178;4.138;2023-05-10T04:09:54;14.30;91.70
76172;DHT22;64929;51.178;4.138;2023-05-10T04:12:20;14.30;91.60
76172;DHT22;64929;51.178;4.138;2023-05-10T04:14:45;14.30;91.80
76172;DHT22;64929;51.178;4.138;2023-05-10T04:17:11;14.20;91.70
76172;DHT22;64929;51.178;4.138;2023-05-10T04:19:37;14.30;91.60
76172;DHT22;64929;51.178;4.138;2023-05-10T04:22:04;14.30;91.70
76172;DHT22;64929;51.178;4.138;2023-05-10T04:24:29;14.20;91.80
76172;DHT22;64929;51.178;4.138;2023-05-10T04:26:55;14.30;91.80
76172;DHT22;64929;51.178;4.138;2023-05-10T04:29:21;14.30;91.70
76172;DHT22;64929;51.178;4.138;2023-05-10T04:31:46;14.30;91.90
76172;DHT22;64929;51.178;4.138;2023-05-10T04:34:12;14.50;91.40
76172;DHT22;64929;51.178;4.138;2023-05-10T04:36:38;14.50;91.30
76172;DHT22;64929;51.178;4.138;2023-05-10T04:39:04;14.40;91.30
76172;DHT22;64929;51.178;4.138;2023-05-10T04:41:30;14.40;91.40
76172;DHT22;64929;51.178;4.138;2023-05-10T04:43:55;14.40;92.00
76172;DHT22;64929;51.178;4.138;2023-05-10T04:46:21;14.40;91.60
76172;DHT22;64929;51.178;4.138;2023-05-10T04:48:47;14.40;91.50
76172;DHT22;64929;51.178;4.138;2023-05-10T04:51:12;14.40;91.80
76172;DHT22;64929;51.178;4.138;2023-05-10T04:53:38;14.30;92.00
76172;DHT22;64929;51.178;4.138;2023-05-10T04:56:04;14.40;91.70
76172;DHT22;64929;51.178;4.138;2023-05-10T04:58:30;14.30;91.90
76172;DHT22;64929;51.178;4.138;2023-05-10T05:00:56;14.50;91.60
76172;DHT22;64929;51.178;4.138;2023-05-10T05:03:22;14.60;91.30
76172;DHT22;64929;51.178;4.138;2023-05-10T05:05:48;14.70;90.90
76172;DHT22;64929;51.178;4.138;2023-05-10T05:08:13;14.50;91.00
76172;DHT22;64929;51.178;4.138;2023-05-10T05:10:39;14.40;91.00
76172;DHT22;64929;51.178;4.138;2023-05-10T05:13:05;14.30;91.10
76172;DHT22;64929;51.178;4.138;2023-05-10T05:15:31;14.40;91.10
76172;DHT22;64929;51.178;4.138;2023-05-10T05:17:57;14.40;91.00
76172;DHT22;64929;51.178;4.138;2023-05-10T05:20:22;14.40;91.00
76172;DHT22;64929;51.178;4.138;2023-05-10T05:22:48;14.30;91.30
76172;DHT22;64929;51.178;4.138;2023-05-10T05:25:14;14.30;91.30
76172;DHT22;64929;51.178;4.138;2023-05-10T05:27:40;14.30;91.40
76172;DHT22;64929;51.178;4.138;2023-05-10T05:30:07;14.20;91.80
76172;DHT22;64929;51.178;4.138;2023-05-10T05:32:33;14.30;92.10
76172;DHT22;64929;51.178;4.138;2023-05-10T05:34:58;14.50;91.50
76172;DHT22;64929;51.178;4.138;2023-05-10T05:37:24;14.70;91.20
76172;DHT22;64929;51.178;4.138;2023-05-10T05:39:50;14.90;90.80
76172;DHT22;64929;51.178;4.138;2023-05-10T05:42:16;14.80;90.80
76172;DHT22;64929;51.178;4.138;2023-05-10T05:44:44;14.80;90.80
76172;DHT22;64929;51.178;4.138;2023-05-10T05:47:10;14.90;90.60
76172;DHT22;64929;51.178;4.138;2023-05-10T05:49:36;14.90;90.70
76172;DHT22;64929;51.178;4.138;2023-05-10T05:52:03;15.00;90.20
76172;DHT22;64929;51.178;4.138;2023-05-10T05:54:29;15.00;90.60
76172;DHT22;64929;51.178;4.138;2023-05-10T05:56:59;14.90;90.60
76172;DHT22;64929;51.178;4.138;2023-05-10T05:59:25;14.80;90.60
76172;DHT22;64929;51.178;4.138;2023-05-10T06:01:51;15.00;90.00
76172;DHT22;64929;51.178;4.138;2023-05-10T06:04:17;15.10;90.00
76172;DHT22;64929;51.178;4.138;2023-05-10T06:06:42;14.80;90.40
76172;DHT22;64929;51.178;4.138;2023-05-10T06:09:08;14.80;90.60
76172;DHT22;64929;51.178;4.138;2023-05-10T06:11:35;14.90;90.70
76172;DHT22;64929;51.178;4.138;2023-05-10T06:14:01;15.10;90.20
76172;DHT22;64929;51.178;4.138;2023-05-10T06:16:27;15.20;90.10
76172;DHT22;64929;51.178;4.138;2023-05-10T06:18:53;15.10;90.00
76172;DHT22;64929;51.178;4.138;2023-05-10T06:21:18;14.90;90.50
76172;DHT22;64929;51.178;4.138;2023-05-10T06:23:44;14.90;90.60
76172;DHT22;64929;51.178;4.138;2023-05-10T06:26:10;15.10;90.30
76172;DHT22;64929;51.178;4.138;2023-05-10T06:28:36;15.10;90.30
76172;DHT22;64929;51.178;4.138;2023-05-10T06:31:04;15.20;90.50
76172;DHT22;64929;51.178;4.138;2023-05-10T06:33:30;15.40;90.20
76172;DHT22;64929;51.178;4.138;2023-05-10T06:35:55;15.40;89.20
76172;DHT22;64929;51.178;4.138;2023-05-10T06:38:21;15.30;89.90
76172;DHT22;64929;51.178;4.138;2023-05-10T06:40:47;15.10;90.20
76172;DHT22;64929;51.178;4.138;2023-05-10T06:43:13;15.00;90.60
76172;DHT22;64929;51.178;4.138;2023-05-10T06:45:38;15.00;90.90
76172;DHT22;64929;51.178;4.138;2023-05-10T06:48:04;15.10;90.80
76172;DHT22;64929;51.178;4.138;2023-05-10T06:50:30;15.20;90.90
76172;DHT22;64929;51.178;4.138;2023-05-10T06:52:56;15.20;90.60
76172;DHT22;64929;51.178;4.138;2023-05-10T06:55:21;15.30;90.30
76172;DHT22;64929;51.178;4.138;2023-05-10T06:57:47;15.30;90.20
76172;DHT22;64929;51.178;4.138;2023-05-10T07:00:14;15.20;90.30
76172;DHT22;64929;51.178;4.138;2023-05-10T07:02:40;15.30;90.00
76172;DHT22;64929;51.178;4.138;2023-05-10T07:05:06;15.30;89.90
76172;DHT22;64929;51.178;4.138;2023-05-10T07:07:32;15.60;88.30
76172;DHT22;64929;51.178;4.138;2023-05-10T07:09:57;15.40;88.60
76172;DHT22;64929;51.178;4.138;2023-05-10T07:12:24;15.50;89.80
76172;DHT22;64929;51.178;4.138;2023-05-10T07:14:50;15.70;89.50
76172;DHT22;64929;51.178;4.138;2023-05-10T07:17:15;15.90;85.70
76172;DHT22;64929;51.178;4.138;2023-05-10T07:19:41;15.80;85.60
76172;DHT22;64929;51.178;4.138;2023-05-10T07:22:07;15.90;84.90
76172;DHT22;64929;51.178;4.138;2023-05-10T07:24:33;15.90;86.40
76172;DHT22;64929;51.178;4.138;2023-05-10T07:26:58;15.80;87.40
76172;DHT22;64929;51.178;4.138;2023-05-10T07:29:24;15.80;87.80
76172;DHT22;64929;51.178;4.138;2023-05-10T07:31:50;16.00;88.20
76172;DHT22;64929;51.178;4.138;2023-05-10T07:34:15;16.10;87.30
76172;DHT22;64929;51.178;4.138;2023-05-10T07:36:41;16.50;86.30
76172;DHT22;64929;51.178;4.138;2023-05-10T07:39:07;16.70;83.60
76172;DHT22;64929;51.178;4.138;2023-05-10T07:41:33;16.70;84.80
76172;DHT22;64929;51.178;4.138;2023-05-10T07:43:59;16.40;83.30
76172;DHT22;64929;51.178;4.138;2023-05-10T07:46:24;16.30;85.30
76172;DHT22;64929;51.178;4.138;2023-05-10T07:48:50;16.30;85.50
76172;DHT22;64929;51.178;4.138;2023-05-10T07:51:16;16.50;85.00
76172;DHT22;64929;51.178;4.138;2023-05-10T07:53:41;16.70;81.30
76172;DHT22;64929;51.178;4.138;2023-05-10T07:56:27;16.70;81.00
76172;DHT22;64929;51.178;4.138;2023-05-10T07:58:59;16.70;80.80
76172;DHT22;64929;51.178;4.138;2023-05-10T08:01:25;16.50;80.40
76172;DHT22;64929;51.178;4.138;2023-05-10T08:03:51;16.50;82.60
76172;DHT22;64929;51.178;4.138;2023-05-10T08:06:19;16.30;83.40
76172;DHT22;64929;51.178;4.138;2023-05-10T08:08:46;16.00;84.10
76172;DHT22;64929;51.178;4.138;2023-05-10T08:11:15;16.10;84.50
76172;DHT22;64929;51.178;4.138;2023-05-10T08:13:41;16.20;82.60
76172;DHT22;64929;51.178;4.138;2023-05-10T08:16:07;16.10;83.60
76172;DHT22;64929;51.178;4.138;2023-05-10T08:18:33;16.40;82.90
76172;DHT22;64929;51.178;4.138;2023-05-10T08:20:59;16.30;82.60
76172;DHT22;64929;51.178;4.138;2023-05-10T08:23:24;16.40;81.80
76172;DHT22;64929;51.178;4.138;2023-05-10T08:25:50;16.70;78.30
76172;DHT22;64929;51.178;4.138;2023-05-10T08:28:16;17.00;80.70
76172;DHT22;64929;51.178;4.138;2023-05-10T08:30:41;17.10;82.00
76172;DHT22;64929;51.178;4.138;2023-05-10T08:33:07;17.20;80.30
76172;DHT22;64929;51.178;4.138;2023-05-10T08:35:33;17.10;77.90
76172;DHT22;64929;51.178;4.138;2023-05-10T08:38:00;17.20;77.50
76172;DHT22;64929;51.178;4.138;2023-05-10T08:40:26;17.50;77.10
76172;DHT22;64929;51.178;4.138;2023-05-10T08:43:03;17.70;75.70
76172;DHT22;64929;51.178;4.138;2023-05-10T08:45:35;17.80;72.60
76172;DHT22;64929;51.178;4.138;2023-05-10T08:48:02;17.70;74.70
76172;DHT22;64929;51.178;4.138;2023-05-10T08:50:31;17.70;76.20
76172;DHT22;64929;51.178;4.138;2023-05-10T08:53:00;17.80;75.40
76172;DHT22;64929;51.178;4.138;2023-05-10T08:55:26;18.00;74.40
76172;DHT22;64929;51.178;4.138;2023-05-10T08:57:52;17.90;73.30
76172;DHT22;64929;51.178;4.138;2023-05-10T09:00:19;18.00;73.60
76172;DHT22;64929;51.178;4.138;2023-05-10T09:02:45;18.10;71.50
76172;DHT22;64929;51.178;4.138;2023-05-10T09:05:12;18.20;74.80
76172;DHT22;64929;51.178;4.138;2023-05-10T09:07:37;18.20;73.30
76172;DHT22;64929;51.178;4.138;2023-05-10T09:10:04;18.10;74.70
76172;DHT22;64929;51.178;4.138;2023-05-10T09:12:30;18.00;74.20
76172;DHT22;64929;51.178;4.138;2023-05-10T09:14:58;17.70;75.20
76172;DHT22;64929;51.178;4.138;2023-05-10T09:17:25;17.40;77.50
76172;DHT22;64929;51.178;4.138;2023-05-10T09:20:03;17.20;79.10
76172;DHT22;64929;51.178;4.138;2023-05-10T09:22:32;17.20;79.00
76172;DHT22;64929;51.178;4.138;2023-05-10T09:25:09;16.80;80.40
76172;DHT22;64929;51.178;4.138;2023-05-10T09:27:38;16.70;82.20
76172;DHT22;64929;51.178;4.138;2023-05-10T09:30:05;16.80;81.10
76172;DHT22;64929;51.178;4.138;2023-05-10T09:32:42;16.80;81.50
76172;DHT22;64929;51.178;4.138;2023-05-10T09:35:09;17.20;82.50
76172;DHT22;64929;51.178;4.138;2023-05-10T09:37:35;17.20;81.10
76172;DHT22;64929;51.178;4.138;2023-05-10T09:40:04;17.40;82.80
76172;DHT22;64929;51.178;4.138;2023-05-10T09:42:30;17.60;81.10
76172;DHT22;64929;51.178;4.138;2023-05-10T09:45:01;17.30;79.60
76172;DHT22;64929;51.178;4.138;2023-05-10T09:47:27;17.40;79.10
76172;DHT22;64929;51.178;4.138;2023-05-10T09:49:53;17.20;79.20
76172;DHT22;64929;51.178;4.138;2023-05-10T09:52:23;17.20;79.30
76172;DHT22;64929;51.178;4.138;2023-05-10T09:54:54;17.50;79.50
76172;DHT22;64929;51.178;4.138;2023-05-10T09:57:22;17.80;78.20
76172;DHT22;64929;51.178;4.138;2023-05-10T09:59:48;17.90;75.50
76172;DHT22;64929;51.178;4.138;2023-05-10T10:02:14;17.90;75.80
76172;DHT22;64929;51.178;4.138;2023-05-10T10:04:40;17.80;76.20
76172;DHT22;64929;51.178;4.138;2023-05-10T10:07:07;17.70;75.70
76172;DHT22;64929;51.178;4.138;2023-05-10T10:09:33;17.70;76.60
76172;DHT22;64929;51.178;4.138;2023-05-10T10:12:03;17.50;78.20
76172;DHT22;64929;51.178;4.138;2023-05-10T10:14:30;17.30;77.40
76172;DHT22;64929;51.178;4.138;2023-05-10T10:16:56;17.50;79.40
76172;DHT22;64929;51.178;4.138;2023-05-10T10:19:22;17.60;74.80
76172;DHT22;64929;51.178;4.138;2023-05-10T10:21:49;17.50;76.40
76172;DHT22;64929;51.178;4.138;2023-05-10T10:24:15;17.40;78.10
76172;DHT22;64929;51.178;4.138;2023-05-10T10:26:42;17.30;79.20
76172;DHT22;64929;51.178;4.138;2023-05-10T10:32:27;17.20;79.80
76172;DHT22;64929;51.178;4.138;2023-05-10T10:34:55;17.30;77.70
76172;DHT22;64929;51.178;4.138;2023-05-10T10:37:21;17.20;78.00
76172;DHT22;64929;51.178;4.138;2023-05-10T10:39:50;17.00;79.80
76172;DHT22;64929;51.178;4.138;2023-05-10T10:42:44;17.20;78.70
76172;DHT22;64929;51.178;4.138;2023-05-10T10:45:12;17.00;77.20
76172;DHT22;64929;51.178;4.138;2023-05-10T10:47:37;16.90;77.90
76172;DHT22;64929;51.178;4.138;2023-05-10T10:50:05;17.00;76.80
76172;DHT22;64929;51.178;4.138;2023-05-10T10:52:33;17.20;77.80
76172;DHT22;64929;51.178;4.138;2023-05-10T10:57:33;17.40;75.60
76172;DHT22;64929;51.178;4.138;2023-05-10T11:03:09;17.50;76.30
76172;DHT22;64929;51.178;4.138;2023-05-10T11:05:45;17.50;75.10
76172;DHT22;64929;51.178;4.138;2023-05-10T11:08:29;17.30;77.10
76172;DHT22;64929;51.178;4.138;2023-05-10T11:13:47;17.50;76.40
76172;DHT22;64929;51.178;4.138;2023-05-10T11:16:21;17.70;76.70
76172;DHT22;64929;51.178;4.138;2023-05-10T11:19:07;17.80;74.90
76172;DHT22;64929;51.178;4.138;2023-05-10T11:21:34;18.00;75.10
76172;DHT22;64929;51.178;4.138;2023-05-10T11:24:01;18.00;75.70
76172;DHT22;64929;51.178;4.138;2023-05-10T11:26:33;17.90;76.20
76172;DHT22;64929;51.178;4.138;2023-05-10T11:28:59;17.70;75.70
76172;DHT22;64929;51.178;4.138;2023-05-10T11:31:27;17.60;75.60
76172;DHT22;64929;51.178;4.138;2023-05-10T11:33:55;17.90;75.10
76172;DHT22;64929;51.178;4.138;2023-05-10T11:36:29;18.00;75.30
76172;DHT22;64929;51.178;4.138;2023-05-10T11:38:57;17.80;75.90
76172;DHT22;64929;51.178;4.138;2023-05-10T11:41:24;17.90;75.70
76172;DHT22;64929;51.178;4.138;2023-05-10T11:43:52;17.80;74.40
76172;DHT22;64929;51.178;4.138;2023-05-10T11:46:19;17.80;75.70
76172;DHT22;64929;51.178;4.138;2023-05-10T11:48:49;17.70;76.10
76172;DHT22;64929;51.178;4.138;2023-05-10T11:51:20;17.50;76.20
76172;DHT22;64929;51.178;4.138;2023-05-10T11:53:46;17.70;77.00
76172;DHT22;64929;51.178;4.138;2023-05-10T11:56:13;17.60;76.10
76172;DHT22;64929;51.178;4.138;2023-05-10T11:58:39;17.30;76.60
76172;DHT22;64929;51.178;4.138;2023-05-10T12:01:07;17.40;77.50
76172;DHT22;64929;51.178;4.138;2023-05-10T12:03:33;17.20;77.60
76172;DHT22;64929;51.178;4.138;2023-05-10T12:06:00;17.30;75.60
76172;DHT22;64929;51.178;4.138;2023-05-10T12:08:27;17.20;76.40
76172;DHT22;64929;51.178;4.138;2023-05-10T12:11:04;17.30;77.70
76172;DHT22;64929;51.178;4.138;2023-05-10T12:13:30;17.20;77.20
76172;DHT22;64929;51.178;4.138;2023-05-10T12:15:59;17.20;77.00
76172;DHT22;64929;51.178;4.138;2023-05-10T12:18:25;17.20;77.50
76172;DHT22;64929;51.178;4.138;2023-05-10T12:20:54;17.10;77.60
76172;DHT22;64929;51.178;4.138;2023-05-10T12:23:20;17.20;77.30
76172;DHT22;64929;51.178;4.138;2023-05-10T12:25:46;17.20;77.20
76172;DHT22;64929;51.178;4.138;2023-05-10T12:28:12;17.30;77.10
76172;DHT22;64929;51.178;4.138;2023-05-10T12:30:38;17.10;78.20
76172;DHT22;64929;51.178;4.138;2023-05-10T12:33:09;16.90;78.40
76172;DHT22;64929;51.178;4.138;2023-05-10T12:35:47;16.80;78.90
76172;DHT22;64929;51.178;4.138;2023-05-10T12:38:31;16.70;80.10
76172;DHT22;64929;51.178;4.138;2023-05-10T12:40:58;16.80;80.30
76172;DHT22;64929;51.178;4.138;2023-05-10T12:43:24;16.80;80.10
76172;DHT22;64929;51.178;4.138;2023-05-10T12:45:50;16.80;80.50
76172;DHT22;64929;51.178;4.138;2023-05-10T12:48:16;16.90;79.90
76172;DHT22;64929;51.178;4.138;2023-05-10T12:50:41;16.70;80.00
76172;DHT22;64929;51.178;4.138;2023-05-10T12:53:07;16.40;82.20
76172;DHT22;64929;51.178;4.138;2023-05-10T12:55:33;16.40;81.10
76172;DHT22;64929;51.178;4.138;2023-05-10T12:57:59;16.30;82.20
76172;DHT22;64929;51.178;4.138;2023-05-10T13:00:25;16.40;82.50
76172;DHT22;64929;51.178;4.138;2023-05-10T13:02:51;16.30;83.40
76172;DHT22;64929;51.178;4.138;2023-05-10T13:05:17;16.20;84.30
76172;DHT22;64929;51.178;4.138;2023-05-10T13:07:43;16.20;85.30
76172;DHT22;64929;51.178;4.138;2023-05-10T13:10:09;16.20;85.40
76172;DHT22;64929;51.178;4.138;2023-05-10T13:12:35;16.40;85.30
76172;DHT22;64929;51.178;4.138;2023-05-10T13:15:02;16.30;85.30
76172;DHT22;64929;51.178;4.138;2023-05-10T13:17:28;16.40;84.90
76172;DHT22;64929;51.178;4.138;2023-05-10T13:19:54;16.60;84.90
76172;DHT22;64929;51.178;4.138;2023-05-10T13:22:20;16.60;85.40
76172;DHT22;64929;51.178;4.138;2023-05-10T13:24:45;16.60;86.00
76172;DHT22;64929;51.178;4.138;2023-05-10T13:27:11;16.80;86.50
76172;DHT22;64929;51.178;4.138;2023-05-10T13:29:37;16.70;86.40
76172;DHT22;64929;51.178;4.138;2023-05-10T13:32:02;16.70;86.10
76172;DHT22;64929;51.178;4.138;2023-05-10T13:34:28;17.00;86.70
76172;DHT22;64929;51.178;4.138;2023-05-10T13:36:54;17.20;84.90
76172;DHT22;64929;51.178;4.138;2023-05-10T13:39:21;17.40;83.10
76172;DHT22;64929;51.178;4.138;2023-05-10T13:41:47;17.30;82.60
76172;DHT22;64929;51.178;4.138;2023-05-10T13:44:14;17.40;83.40
76172;DHT22;64929;51.178;4.138;2023-05-10T13:46:40;17.50;82.90
76172;DHT22;64929;51.178;4.138;2023-05-10T13:49:10;17.30;82.50
76172;DHT22;64929;51.178;4.138;2023-05-10T13:51:35;17.30;82.80
76172;DHT22;64929;51.178;4.138;2023-05-10T13:54:02;17.30;83.30
76172;DHT22;64929;51.178;4.138;2023-05-10T13:56:28;17.40;85.30
76172;DHT22;64929;51.178;4.138;2023-05-10T13:58:54;17.30;83.80
76172;DHT22;64929;51.178;4.138;2023-05-10T14:01:19;17.30;84.60
76172;DHT22;64929;51.178;4.138;2023-05-10T14:03:45;17.30;84.30
76172;DHT22;64929;51.178;4.138;2023-05-10T14:06:11;17.40;84.00
76172;DHT22;64929;51.178;4.138;2023-05-10T14:08:37;17.40;83.90
76172;DHT22;64929;51.178;4.138;2023-05-10T14:11:02;17.20;85.20
76172;DHT22;64929;51.178;4.138;2023-05-10T14:13:28;17.20;84.90
76172;DHT22;64929;51.178;4.138;2023-05-10T14:15:54;17.20;84.60
76172;DHT22;64929;51.178;4.138;2023-05-10T14:18:20;17.00;84.10
76172;DHT22;64929;51.178;4.138;2023-05-10T14:20:46;16.60;83.80
76172;DHT22;64929;51.178;4.138;2023-05-10T14:23:12;16.50;84.80
76172;DHT22;64929;51.178;4.138;2023-05-10T14:25:40;16.40;84.90
76172;DHT22;64929;51.178;4.138;2023-05-10T14:28:06;16.30;85.00
76172;DHT22;64929;51.178;4.138;2023-05-10T14:30:31;16.30;85.80
76172;DHT22;64929;51.178;4.138;2023-05-10T14:32:59;16.30;86.90
76172;DHT22;64929;51.178;4.138;2023-05-10T14:35:27;16.20;87.40
76172;DHT22;64929;51.178;4.138;2023-05-10T14:37:52;16.20;88.10
76172;DHT22;64929;51.178;4.138;2023-05-10T14:40:18;16.10;86.60
76172;DHT22;64929;51.178;4.138;2023-05-10T14:42:44;16.20;88.10
76172;DHT22;64929;51.178;4.138;2023-05-10T14:45:10;16.30;88.90
76172;DHT22;64929;51.178;4.138;2023-05-10T14:47:36;16.20;89.50
76172;DHT22;64929;51.178;4.138;2023-05-10T14:50:02;16.20;90.00
76172;DHT22;64929;51.178;4.138;2023-05-10T14:52:27;16.20;89.70
76172;DHT22;64929;51.178;4.138;2023-05-10T14:54:53;16.10;89.50
76172;DHT22;64929;51.178;4.138;2023-05-10T14:57:19;16.00;90.00
76172;DHT22;64929;51.178;4.138;2023-05-10T14:59:44;15.90;90.00
76172;DHT22;64929;51.178;4.138;2023-05-10T15:02:10;15.90;90.50
76172;DHT22;64929;51.178;4.138;2023-05-10T15:04:36;16.10;90.20
76172;DHT22;64929;51.178;4.138;2023-05-10T15:07:02;16.10;90.50
76172;DHT22;64929;51.178;4.138;2023-05-10T15:09:28;16.10;90.50
76172;DHT22;64929;51.178;4.138;2023-05-10T15:11:54;16.20;89.40
76172;DHT22;64929;51.178;4.138;2023-05-10T15:14:20;16.20;88.50
76172;DHT22;64929;51.178;4.138;2023-05-10T15:16:46;16.20;88.30
76172;DHT22;64929;51.178;4.138;2023-05-10T15:19:12;16.10;89.30
76172;DHT22;64929;51.178;4.138;2023-05-10T15:21:37;16.20;88.70
76172;DHT22;64929;51.178;4.138;2023-05-10T15:24:07;16.10;89.50
76172;DHT22;64929;51.178;4.138;2023-05-10T15:26:33;16.00;90.00
76172;DHT22;64929;51.178;4.138;2023-05-10T15:28:59;15.90;89.50
76172;DHT22;64929;51.178;4.138;2023-05-10T15:31:24;15.90;89.10
76172;DHT22;64929;51.178;4.138;2023-05-10T15:33:50;16.00;87.50
76172;DHT22;64929;51.178;4.138;2023-05-10T15:36:16;16.20;86.20
76172;DHT22;64929;51.178;4.138;2023-05-10T15:38:43;16.00;88.00
76172;DHT22;64929;51.178;4.138;2023-05-10T15:41:09;16.00;89.30
76172;DHT22;64929;51.178;4.138;2023-05-10T15:43:35;16.20;88.50
76172;DHT22;64929;51.178;4.138;2023-05-10T15:46:01;16.20;88.30
76172;DHT22;64929;51.178;4.138;2023-05-10T15:48:27;15.80;89.70
76172;DHT22;64929;51.178;4.138;2023-05-10T15:50:52;16.00;90.00
76172;DHT22;64929;51.178;4.138;2023-05-10T15:53:18;15.90;89.70
76172;DHT22;64929;51.178;4.138;2023-05-10T15:55:44;15.70;90.20
76172;DHT22;64929;51.178;4.138;2023-05-10T15:58:09;15.70;90.40
76172;DHT22;64929;51.178;4.138;2023-05-10T16:00:35;15.90;90.10
76172;DHT22;64929;51.178;4.138;2023-05-10T16:03:01;16.00;90.10